Time;durP1;ratioP1;P1;durP2;ratioP2;P2;SDS_P1;SDS_P2;PMS_P1;PMS_P2;Temp;Humidity;BMP_temperature;BMP_pressure;BME280_temperature;BME280_humidity;BME280_pressure;Samples;Min_cycle;Max_cycle;Signal;HPM_P1;HPM_P2
2022/08/01 00:00:40;;;;;;;10.07;6.65;;;17.90;99.90;;;;;;5037378;28;20512;-69
2022/08/01 00:03:05;;;;;;;11.77;6.38;;;17.90;99.90;;;;;;5038167;28;20049;-69
2022/08/01 00:05:32;;;;;;;11.65;6.63;;;17.90;99.90;;;;;;5037457;28;20052;-69
2022/08/01 00:07:57;;;;;;;11.90;6.82;;;17.90;99.90;;;;;;5040792;28;20045;-69
2022/08/01 00:10:24;;;;;;;10.48;6.65;;;17.90;99.90;;;;;;5043919;28;20053;-69
2022/08/01 00:12:50;;;;;;;9.25;6.30;;;17.90;99.90;;;;;;5043540;28;20044;-69
2022/08/01 00:15:17;;;;;;;9.55;6.85;;;17.90;99.90;;;;;;5039562;28;20119;-69
2022/08/01 00:17:43;;;;;;;10.00;6.10;;;17.80;99.90;;;;;;5039140;28;20032;-69
2022/08/01 00:20:11;;;;;;;11.68;7.35;;;17.80;99.90;;;;;;5027837;28;20068;-69
2022/08/01 00:22:37;;;;;;;13.40;7.72;;;17.90;99.90;;;;;;5060966;28;20401;-69
2022/08/01 00:25:04;;;;;;;12.80;8.18;;;17.80;99.90;;;;;;5044072;28;20037;-69
2022/08/01 00:27:33;;;;;;;14.10;7.68;;;17.80;99.90;;;;;;5059720;28;20605;-69
2022/08/01 00:30:01;;;;;;;13.93;8.07;;;17.80;99.90;;;;;;5047657;28;20447;-69
2022/08/01 00:32:29;;;;;;;11.63;7.80;;;17.80;99.90;;;;;;5042110;28;20411;-69
2022/08/01 00:34:55;;;;;;;10.25;7.30;;;17.80;99.90;;;;;;5040439;28;20036;-69
2022/08/01 00:37:21;;;;;;;12.10;8.23;;;17.80;99.90;;;;;;5038788;28;20095;-69
2022/08/01 00:39:46;;;;;;;12.75;7.95;;;17.80;99.90;;;;;;5060033;28;20044;-69
2022/08/01 00:42:12;;;;;;;10.95;7.53;;;17.80;99.90;;;;;;5024948;28;20045;-69
2022/08/01 00:44:39;;;;;;;14.00;8.68;;;17.80;99.90;;;;;;5042232;28;20052;-69
2022/08/01 00:47:05;;;;;;;15.98;8.45;;;17.70;99.90;;;;;;5038507;28;20029;-69
2022/08/01 00:49:31;;;;;;;13.77;8.00;;;17.70;99.90;;;;;;5054026;28;20061;-69
2022/08/01 00:51:58;;;;;;;11.32;7.53;;;17.80;99.90;;;;;;5044973;28;20284;-69
2022/08/01 00:54:25;;;;;;;15.48;8.45;;;17.70;99.90;;;;;;5037426;28;20044;-69
2022/08/01 00:56:51;;;;;;;16.95;8.00;;;17.70;99.90;;;;;;5043859;28;20051;-69
2022/08/01 00:59:22;;;;;;;13.18;8.35;;;17.70;99.90;;;;;;5021074;28;20053;-69
2022/08/01 01:01:50;;;;;;;12.50;8.85;;;17.70;99.90;;;;;;5037459;28;20041;-69
2022/08/01 01:04:17;;;;;;;13.02;8.50;;;17.70;99.90;;;;;;5025242;28;20431;-69
2022/08/01 01:07:16;;;;;;;15.48;9.82;;;17.70;99.90;;;;;;5022293;28;20048;-69
2022/08/01 01:10:01;;;;;;;16.98;8.30;;;17.70;99.90;;;;;;5037891;28;20040;-69
2022/08/01 01:12:31;;;;;;;13.48;8.63;;;17.70;99.90;;;;;;5043170;28;20041;-69
2022/08/01 01:15:23;;;;;;;18.50;9.50;;;17.70;99.90;;;;;;5027317;28;20037;-69
2022/08/01 01:18:15;;;;;;;14.43;8.68;;;17.70;99.90;;;;;;5044058;28;20044;-69
2022/08/01 01:20:46;;;;;;;;;;;17.60;99.90;;;;;;5026251;28;20041;-69
2022/08/01 01:23:30;;;;;;;15.85;9.73;;;17.60;99.90;;;;;;5022178;28;19927;-69
2022/08/01 01:26:04;;;;;;;16.00;9.52;;;17.60;99.90;;;;;;5042312;28;20082;-69
2022/08/01 01:28:45;;;;;;;17.20;9.70;;;17.60;99.90;;;;;;5043858;28;20067;-69
2022/08/01 01:31:13;;;;;;;15.52;9.38;;;17.60;99.90;;;;;;5025795;28;20079;-69
2022/08/01 01:33:41;;;;;;;19.77;10.32;;;17.60;99.90;;;;;;5037937;28;20110;-69
2022/08/01 01:36:11;;;;;;;19.30;9.95;;;17.60;99.90;;;;;;5041315;28;20035;-69
2022/08/01 01:38:41;;;;;;;15.82;9.05;;;17.60;99.90;;;;;;5042827;28;20094;-69
2022/08/01 01:41:10;;;;;;;14.35;8.95;;;17.60;99.90;;;;;;5061897;28;20059;-69
2022/08/01 01:43:37;;;;;;;14.90;8.30;;;17.60;99.90;;;;;;5038512;28;20106;-69
2022/08/01 01:46:07;;;;;;;14.30;9.30;;;17.60;99.90;;;;;;5025098;28;20048;-69
2022/08/01 01:48:34;;;;;;;15.20;8.60;;;17.60;99.90;;;;;;5039864;28;20401;-69
2022/08/01 01:51:01;;;;;;;17.92;9.65;;;17.60;99.90;;;;;;5052064;28;20132;-69
2022/08/01 01:53:28;;;;;;;15.32;9.02;;;17.50;99.90;;;;;;5042419;28;20051;-69
2022/08/01 01:55:57;;;;;;;14.40;8.73;;;17.50;99.90;;;;;;5041700;28;20032;-69
2022/08/01 01:58:24;;;;;;;20.95;9.80;;;17.50;99.90;;;;;;5042015;28;20039;-69
2022/08/01 02:00:52;;;;;;;13.40;9.38;;;17.60;99.90;;;;;;5039270;28;20063;-69
2022/08/01 02:03:20;;;;;;;15.75;9.20;;;17.50;99.90;;;;;;5056633;28;20632;-68
2022/08/01 02:05:47;;;;;;;17.70;9.45;;;17.50;99.90;;;;;;5058326;28;20036;-69
2022/08/01 02:08:16;;;;;;;17.05;8.60;;;17.50;99.90;;;;;;5059045;28;20029;-69
2022/08/01 02:13:31;;;;;;;16.20;9.45;;;17.50;99.90;;;;;;5060744;28;20045;-69
2022/08/01 02:15:58;;;;;;;19.45;10.30;;;17.50;99.90;;;;;;5054267;28;20044;-69
2022/08/01 02:18:23;;;;;;;16.40;9.77;;;17.50;99.90;;;;;;5025693;28;20040;-69
2022/08/01 02:20:52;;;;;;;18.02;9.52;;;17.50;99.90;;;;;;5055831;28;20036;-69
2022/08/01 02:23:18;;;;;;;16.55;9.57;;;17.50;99.90;;;;;;5040816;28;20037;-69
2022/08/01 02:25:53;;;;;;;15.70;8.52;;;17.50;99.90;;;;;;5042126;28;20041;-69
2022/08/01 02:28:27;;;;;;;15.63;8.02;;;17.50;99.90;;;;;;5043496;28;20036;-68
2022/08/01 02:30:54;;;;;;;11.73;7.28;;;17.40;99.90;;;;;;5037213;28;20044;-69
2022/08/01 02:33:26;;;;;;;11.73;6.93;;;17.40;99.90;;;;;;5028978;28;20114;-69
2022/08/01 02:35:56;;;;;;;9.88;6.80;;;17.40;99.90;;;;;;5041132;28;20086;-69
2022/08/01 02:38:26;;;;;;;10.05;6.55;;;17.40;99.90;;;;;;5042193;28;20526;-69
2022/08/01 02:40:54;;;;;;;10.43;6.68;;;17.50;99.90;;;;;;5041862;28;20490;-69
2022/08/01 02:43:23;;;;;;;10.45;6.47;;;17.40;99.90;;;;;;5038110;28;20041;-69
2022/08/01 02:45:53;;;;;;;8.48;6.03;;;17.40;99.90;;;;;;5056151;28;20109;-69
2022/08/01 02:48:21;;;;;;;8.65;5.70;;;17.40;99.90;;;;;;5037423;28;20049;-69
2022/08/01 02:50:49;;;;;;;14.05;6.20;;;17.40;99.90;;;;;;5024222;28;20521;-69
2022/08/01 02:53:19;;;;;;;10.57;5.63;;;17.40;99.90;;;;;;5056922;28;20044;-69
2022/08/01 02:55:47;;;;;;;12.95;5.93;;;17.30;99.90;;;;;;5058481;28;20198;-69
2022/08/01 02:58:16;;;;;;;9.77;5.93;;;17.30;99.90;;;;;;5020018;28;20044;-69
2022/08/01 03:00:44;;;;;;;5.53;4.50;;;17.30;99.90;;;;;;5043955;28;20401;-69
2022/08/01 03:03:10;;;;;;;10.68;4.93;;;17.30;99.90;;;;;;5053396;28;20492;-69
2022/08/01 03:05:39;;;;;;;8.63;5.13;;;17.30;99.90;;;;;;5010120;28;20077;-69
2022/08/01 03:08:09;;;;;;;7.90;4.72;;;17.30;99.90;;;;;;5039212;28;20042;-69
2022/08/01 03:10:37;;;;;;;7.35;4.63;;;17.30;99.90;;;;;;5059036;28;20048;-69
2022/08/01 03:13:06;;;;;;;8.43;4.78;;;17.30;99.90;;;;;;5020361;28;20299;-69
2022/08/01 03:15:35;;;;;;;7.22;4.72;;;17.20;99.90;;;;;;5045028;28;20439;-68
2022/08/01 03:18:04;;;;;;;5.53;3.92;;;17.20;99.90;;;;;;5034560;28;20041;-69
2022/08/01 03:20:32;;;;;;;10.93;4.22;;;17.20;99.90;;;;;;5061978;28;20032;-69
2022/08/01 03:23:03;;;;;;;7.05;3.67;;;17.20;99.90;;;;;;5038546;28;20047;-69
2022/08/01 03:25:31;;;;;;;10.93;4.57;;;17.10;99.90;;;;;;5038711;28;20079;-69
2022/08/01 03:28:01;;;;;;;9.20;4.00;;;17.10;99.90;;;;;;5021173;28;20043;-69
2022/08/01 03:30:27;;;;;;;6.88;3.28;;;17.10;99.90;;;;;;5039640;28;20047;-69
2022/08/01 03:32:53;;;;;;;5.53;3.17;;;17.10;99.90;;;;;;5023759;28;20067;-69
2022/08/01 03:35:21;;;;;;;6.75;3.80;;;17.10;99.90;;;;;;5037788;28;20445;-69
2022/08/01 03:37:52;;;;;;;6.43;3.67;;;17.10;99.90;;;;;;5026482;28;20044;-69
2022/08/01 03:40:23;;;;;;;5.22;3.00;;;17.00;99.90;;;;;;5022509;28;20482;-69
2022/08/01 03:42:53;;;;;;;6.00;3.03;;;17.00;99.90;;;;;;5060050;28;20041;-69
2022/08/01 03:45:24;;;;;;;5.72;3.47;;;17.00;99.90;;;;;;5023781;28;20143;-69
2022/08/01 03:48:03;;;;;;;7.90;3.65;;;17.00;99.90;;;;;;5052078;28;20056;-69
2022/08/01 03:50:33;;;;;;;8.23;3.13;;;16.90;99.90;;;;;;5029753;28;20036;-69
2022/08/01 03:53:01;;;;;;;5.38;3.67;;;16.90;99.90;;;;;;5056354;28;20433;-69
2022/08/01 03:55:28;;;;;;;7.18;3.35;;;16.90;99.90;;;;;;5035436;28;20048;-69
2022/08/01 03:57:54;;;;;;;7.28;3.40;;;16.90;99.90;;;;;;5008562;28;20032;-69
2022/08/01 04:00:19;;;;;;;8.70;3.60;;;16.90;99.90;;;;;;5025873;28;20033;-69
2022/08/01 04:02:47;;;;;;;5.28;3.25;;;16.90;99.90;;;;;;5009457;28;20465;-69
2022/08/01 04:05:13;;;;;;;9.15;3.72;;;16.90;99.90;;;;;;5038019;28;20045;-69
2022/08/01 04:07:39;;;;;;;7.20;3.53;;;16.80;99.90;;;;;;5017259;28;20037;-69
2022/08/01 04:10:06;;;;;;;12.50;3.40;;;16.90;99.90;;;;;;5040486;28;20131;-69
2022/08/01 04:12:33;;;;;;;6.82;3.63;;;16.90;99.90;;;;;;5041863;28;20049;-69
2022/08/01 04:14:59;;;;;;;11.55;3.22;;;16.80;99.90;;;;;;5057430;28;20037;-69
2022/08/01 04:17:25;;;;;;;7.90;4.22;;;16.80;99.90;;;;;;5040195;28;20086;-69
2022/08/01 04:19:50;;;;;;;8.93;3.50;;;16.80;99.90;;;;;;5041468;28;20390;-70
2022/08/01 04:22:16;;;;;;;10.70;4.38;;;16.80;99.90;;;;;;5040462;28;20031;-69
2022/08/01 04:24:49;;;;;;;6.50;3.20;;;16.80;99.90;;;;;;5041031;28;20114;-70
2022/08/01 04:27:23;;;;;;;11.35;3.80;;;16.80;99.90;;;;;;5032952;28;20525;-69
2022/08/01 04:29:52;;;;;;;9.68;3.38;;;16.80;99.90;;;;;;5018761;28;20496;-69
2022/08/01 04:32:21;;;;;;;8.60;3.45;;;16.80;99.90;;;;;;5061241;28;20028;-69
2022/08/01 04:34:47;;;;;;;12.43;4.25;;;16.80;99.90;;;;;;5019214;28;20040;-69
2022/08/01 04:37:18;;;;;;;7.57;3.30;;;16.80;99.90;;;;;;5025510;28;20040;-69
2022/08/01 04:39:45;;;;;;;7.25;3.60;;;16.80;99.90;;;;;;5038976;28;20046;-69
2022/08/01 04:42:14;;;;;;;8.38;3.20;;;16.80;99.90;;;;;;5056616;28;20135;-69
2022/08/01 04:44:40;;;;;;;7.95;3.60;;;16.80;99.90;;;;;;5052578;28;20048;-69
2022/08/01 04:47:07;;;;;;;9.68;4.13;;;16.80;99.90;;;;;;5019642;28;20127;-70
2022/08/01 04:49:34;;;;;;;8.40;3.60;;;16.80;99.90;;;;;;5036442;28;20048;-70
2022/08/01 04:52:00;;;;;;;12.35;3.72;;;16.80;99.90;;;;;;5055197;28;20150;-69
2022/08/01 04:54:33;;;;;;;7.25;3.90;;;16.80;99.90;;;;;;5028797;28;20041;-69
2022/08/01 04:57:00;;;;;;;8.30;3.63;;;16.80;99.90;;;;;;5045311;28;20079;-70
2022/08/01 04:59:41;;;;;;;9.00;3.55;;;16.80;99.90;;;;;;5036214;28;20041;-70
2022/08/01 05:02:16;;;;;;;8.63;3.50;;;16.80;99.90;;;;;;5023359;28;20584;-69
2022/08/01 05:04:42;;;;;;;8.35;3.38;;;16.70;99.90;;;;;;5037203;28;20040;-69
2022/08/01 05:07:09;;;;;;;8.23;3.40;;;16.70;99.90;;;;;;5058987;28;20068;-70
2022/08/01 05:09:36;;;;;;;7.85;3.13;;;16.70;99.90;;;;;;5029341;28;20048;-70
2022/08/01 05:12:03;;;;;;;12.98;3.60;;;16.70;99.90;;;;;;5041467;28;20037;-70
2022/08/01 05:14:33;;;;;;;8.98;3.78;;;16.80;99.90;;;;;;5047195;28;20040;-70
2022/08/01 05:16:59;;;;;;;10.38;4.28;;;16.70;99.90;;;;;;5042404;28;20044;-70
2022/08/01 05:19:26;;;;;;;5.97;3.78;;;16.70;99.90;;;;;;5035795;28;20037;-70
2022/08/01 05:21:52;;;;;;;8.90;3.92;;;16.70;99.90;;;;;;5042443;28;20048;-69
2022/08/01 05:24:18;;;;;;;10.50;3.72;;;16.70;99.90;;;;;;5060460;28;20106;-70
2022/08/01 05:26:43;;;;;;;12.10;4.10;;;16.70;99.90;;;;;;5056707;28;20533;-69
2022/08/01 05:29:09;;;;;;;13.32;4.32;;;16.70;99.90;;;;;;5046305;28;20050;-69
2022/08/01 05:31:35;;;;;;;10.43;4.63;;;16.70;99.90;;;;;;5039077;28;20517;-69
2022/08/01 05:34:02;;;;;;;11.80;4.05;;;16.70;99.90;;;;;;5024174;28;20082;-70
2022/08/01 05:36:28;;;;;;;9.40;4.40;;;16.70;99.90;;;;;;5060747;28;20043;-70
2022/08/01 05:38:53;;;;;;;8.98;4.75;;;16.70;99.90;;;;;;5036657;28;20555;-69
2022/08/01 05:41:19;;;;;;;9.13;4.38;;;16.70;99.90;;;;;;5043932;28;20033;-70
2022/08/01 05:43:45;;;;;;;14.75;4.82;;;16.60;99.90;;;;;;5032904;28;20131;-70
2022/08/01 05:46:11;;;;;;;12.05;4.20;;;16.70;99.90;;;;;;5032162;28;20061;-69
2022/08/01 05:48:36;;;;;;;11.15;4.10;;;16.70;99.90;;;;;;5056485;28;20481;-70
2022/08/01 05:51:02;;;;;;;14.52;4.80;;;16.60;99.90;;;;;;5023287;28;20051;-70
2022/08/01 05:53:28;;;;;;;11.50;4.53;;;16.60;99.90;;;;;;5021299;28;20175;-69
2022/08/01 05:55:54;;;;;;;14.68;4.63;;;16.60;99.90;;;;;;5035475;28;20068;-69
2022/08/01 05:58:20;;;;;;;16.65;5.05;;;16.70;99.90;;;;;;5056696;28;20044;-69
2022/08/01 06:00:46;;;;;;;13.13;4.43;;;16.60;99.90;;;;;;5043334;28;20036;-70
2022/08/01 06:03:12;;;;;;;13.32;4.78;;;16.70;99.90;;;;;;5033860;28;20497;-70
2022/08/01 06:05:37;;;;;;;9.45;4.80;;;16.70;99.90;;;;;;5023069;28;20128;-70
2022/08/01 06:08:03;;;;;;;13.73;4.38;;;16.70;99.90;;;;;;5005367;28;20074;-69
2022/08/01 06:10:29;;;;;;;10.40;4.30;;;16.70;99.90;;;;;;5034588;28;20404;-70
2022/08/01 06:12:55;;;;;;;9.60;4.63;;;16.70;99.90;;;;;;5025360;28;20037;-70
2022/08/01 06:15:21;;;;;;;12.88;4.55;;;16.70;99.90;;;;;;5043413;28;20041;-70
2022/08/01 06:17:46;;;;;;;14.63;4.45;;;16.70;99.90;;;;;;5038697;28;20037;-70
2022/08/01 06:20:12;;;;;;;15.20;4.65;;;16.70;99.90;;;;;;5040054;28;20481;-69
2022/08/01 06:22:38;;;;;;;10.32;4.30;;;16.70;99.90;;;;;;5036267;28;20037;-70
2022/08/01 06:25:04;;;;;;;13.00;4.20;;;16.70;99.90;;;;;;5016437;28;20051;-70
2022/08/01 06:27:39;;;;;;;9.55;4.30;;;16.70;99.90;;;;;;5019493;28;20048;-70
2022/08/01 06:30:07;;;;;;;13.63;4.80;;;16.70;99.90;;;;;;5007097;28;20072;-70
2022/08/01 06:32:33;;;;;;;13.13;4.30;;;16.70;99.90;;;;;;4990485;28;20167;-70
2022/08/01 06:34:59;;;;;;;12.57;3.72;;;16.80;99.90;;;;;;5021976;28;20562;-70
2022/08/01 06:37:31;;;;;;;12.10;4.30;;;16.80;99.90;;;;;;5023067;28;20040;-70
2022/08/01 06:40:05;;;;;;;12.60;4.38;;;16.80;99.90;;;;;;5021852;28;20116;-70
2022/08/01 06:42:35;;;;;;;12.63;3.90;;;16.80;99.90;;;;;;5022742;28;20321;-70
2022/08/01 06:45:05;;;;;;;12.48;3.92;;;16.80;99.90;;;;;;5020964;28;21264;-70
2022/08/01 06:47:31;;;;;;;14.15;4.32;;;16.90;99.90;;;;;;5023093;28;20045;-70
2022/08/01 06:49:57;;;;;;;16.42;4.30;;;16.90;99.90;;;;;;5038588;28;20033;-70
2022/08/01 06:52:23;;;;;;;14.35;3.50;;;16.90;99.90;;;;;;5023410;28;20068;-70
2022/08/01 06:54:48;;;;;;;12.02;4.13;;;17.00;99.90;;;;;;5001757;28;20170;-70
2022/08/01 06:57:14;;;;;;;8.27;3.97;;;17.10;99.90;;;;;;5021760;28;20417;-70
2022/08/01 06:59:40;;;;;;;16.08;3.78;;;17.10;99.90;;;;;;5005266;28;20044;-70
2022/08/01 07:02:07;;;;;;;11.95;4.38;;;17.10;99.90;;;;;;5022065;28;20110;-70
2022/08/01 07:04:34;;;;;;;13.45;4.13;;;17.10;99.90;;;;;;5004964;28;20337;-70
2022/08/01 07:07:00;;;;;;;15.15;3.65;;;17.10;99.90;;;;;;5023166;28;20102;-70
2022/08/01 07:09:26;;;;;;;15.38;4.30;;;17.10;99.90;;;;;;5020468;28;20057;-70
2022/08/01 07:11:53;;;;;;;14.98;4.13;;;17.10;99.90;;;;;;5021889;28;20059;-70
2022/08/01 07:14:20;;;;;;;15.45;4.30;;;17.20;99.90;;;;;;5036897;28;20486;-70
2022/08/01 07:16:46;;;;;;;13.77;3.85;;;17.20;99.90;;;;;;5020466;28;20490;-70
2022/08/01 07:19:12;;;;;;;17.13;4.03;;;17.20;99.90;;;;;;5005450;28;20033;-70
2022/08/01 07:21:38;;;;;;;18.70;5.28;;;17.20;99.90;;;;;;5021941;28;20049;-70
2022/08/01 07:24:05;;;;;;;11.93;4.15;;;17.30;99.90;;;;;;4990294;28;20052;-70
2022/08/01 07:26:31;;;;;;;12.80;4.80;;;17.30;99.90;;;;;;5006141;28;20044;-70
2022/08/01 07:28:57;;;;;;;13.32;4.35;;;17.30;99.90;;;;;;5019850;28;21137;-70
2022/08/01 07:31:23;;;;;;;15.30;4.18;;;17.30;99.90;;;;;;5018724;28;20045;-70
2022/08/01 07:33:49;;;;;;;15.95;4.38;;;17.40;99.90;;;;;;5003907;28;20486;-70
2022/08/01 07:36:18;;;;;;;23.10;5.03;;;17.40;99.90;;;;;;5037730;28;20041;-71
2022/08/01 07:38:44;;;;;;;15.50;4.28;;;17.40;99.90;;;;;;5005197;28;20029;-70
2022/08/01 07:41:11;;;;;;;12.35;3.90;;;17.40;99.90;;;;;;5010243;28;20114;-70
2022/08/01 07:43:37;;;;;;;14.63;4.53;;;17.40;99.90;;;;;;5021056;28;20565;-70
2022/08/01 07:46:04;;;;;;;16.70;4.25;;;17.40;99.90;;;;;;5021629;28;20501;-70
2022/08/01 07:48:32;;;;;;;13.82;4.13;;;17.40;99.90;;;;;;5005217;28;20529;-70
2022/08/01 07:50:57;;;;;;;16.65;4.22;;;17.40;99.90;;;;;;5020284;28;20118;-70
2022/08/01 07:53:23;;;;;;;16.23;4.30;;;17.50;99.90;;;;;;5021939;28;20396;-71
2022/08/01 07:55:49;;;;;;;17.85;4.05;;;17.40;99.90;;;;;;5003864;28;20190;-70
2022/08/01 07:58:16;;;;;;;16.20;3.90;;;17.40;99.90;;;;;;5005430;28;20045;-70
2022/08/01 08:00:42;;;;;;;13.30;4.18;;;17.40;99.90;;;;;;5036392;28;20565;-70
2022/08/01 08:03:08;;;;;;;18.30;4.00;;;17.40;99.90;;;;;;5012086;28;20053;-71
2022/08/01 08:05:35;;;;;;;12.57;3.92;;;17.30;99.90;;;;;;5033021;28;20458;-70
2022/08/01 08:08:04;;;;;;;22.55;4.57;;;17.40;99.90;;;;;;5019047;28;20038;-70
2022/08/01 08:10:29;;;;;;;11.68;4.13;;;17.40;99.90;;;;;;5048022;28;20079;-70
2022/08/01 08:12:55;;;;;;;14.77;4.03;;;17.40;99.90;;;;;;4999253;28;20041;-71
2022/08/01 08:15:21;;;;;;;17.33;4.47;;;17.30;99.90;;;;;;4999353;28;20482;-71
2022/08/01 08:17:46;;;;;;;11.02;3.30;;;17.30;99.90;;;;;;5015302;28;20521;-71
2022/08/01 08:20:12;;;;;;;15.57;3.58;;;17.30;99.90;;;;;;5031688;28;20033;-70
2022/08/01 08:22:38;;;;;;;13.85;4.15;;;17.40;99.90;;;;;;5031570;28;20159;-70
2022/08/01 08:25:05;;;;;;;15.77;4.03;;;17.70;99.90;;;;;;5031965;28;20055;-71
2022/08/01 08:27:31;;;;;;;16.15;4.82;;;17.40;99.90;;;;;;5015867;28;20099;-71
2022/08/01 08:29:56;;;;;;;14.57;4.22;;;17.40;99.90;;;;;;5019407;28;20037;-71
2022/08/01 08:32:22;;;;;;;12.20;3.70;;;17.50;99.90;;;;;;5018776;28;20033;-71
2022/08/01 08:34:48;;;;;;;13.40;4.18;;;17.50;99.90;;;;;;5035001;28;20033;-71
2022/08/01 08:37:14;;;;;;;11.77;3.53;;;17.50;99.90;;;;;;5015977;28;20068;-70
2022/08/01 08:39:41;;;;;;;18.33;4.50;;;17.50;99.90;;;;;;5035352;28;20037;-70
2022/08/01 08:42:07;;;;;;;15.82;3.88;;;17.50;99.90;;;;;;5019439;28;20045;-71
2022/08/01 08:44:33;;;;;;;11.07;4.15;;;17.50;99.90;;;;;;5002236;28;20534;-70
2022/08/01 08:47:04;;;;;;;13.77;3.30;;;17.60;99.90;;;;;;5035645;28;20040;-70
2022/08/01 08:49:31;;;;;;;14.02;3.75;;;17.60;99.90;;;;;;5019361;28;20044;-70
2022/08/01 08:51:59;;;;;;;14.32;3.90;;;17.70;99.90;;;;;;5034735;28;20041;-70
2022/08/01 08:54:25;;;;;;;12.40;3.65;;;17.80;99.90;;;;;;5035484;28;20032;-70
2022/08/01 08:56:52;;;;;;;15.40;3.63;;;17.80;99.90;;;;;;5034892;28;20041;-70
2022/08/01 08:59:18;;;;;;;14.93;4.20;;;17.90;99.90;;;;;;5035316;28;20029;-70
2022/08/01 09:01:45;;;;;;;22.20;5.18;;;17.90;99.90;;;;;;5034601;28;20053;-70
2022/08/01 09:04:11;;;;;;;15.10;4.50;;;17.90;99.90;;;;;;5035260;28;20052;-70
2022/08/01 09:06:38;;;;;;;11.30;3.88;;;17.90;99.90;;;;;;5018092;28;20559;-70
2022/08/01 09:09:04;;;;;;;11.80;3.70;;;18.00;99.90;;;;;;5018764;28;20461;-70
2022/08/01 09:11:30;;;;;;;12.90;3.47;;;18.00;99.90;;;;;;5034787;28;20120;-70
2022/08/01 09:14:08;;;;;;;12.88;4.18;;;18.00;99.90;;;;;;5035137;28;20160;-70
2022/08/01 09:16:35;;;;;;;20.60;4.28;;;18.00;99.90;;;;;;5025803;28;20095;-70
2022/08/01 09:19:11;;;;;;;17.67;4.00;;;18.10;99.90;;;;;;5013125;28;20049;-70
2022/08/01 09:21:38;;;;;;;17.00;4.07;;;18.10;99.90;;;;;;5035077;28;20068;-70
2022/08/01 09:24:12;;;;;;;11.52;3.10;;;18.20;99.90;;;;;;5034741;28;20532;-70
2022/08/01 09:26:38;;;;;;;12.02;3.25;;;18.30;99.90;;;;;;5034693;28;20383;-70
2022/08/01 09:29:06;;;;;;;11.57;4.03;;;18.30;99.90;;;;;;5034559;28;20073;-71
2022/08/01 09:31:43;;;;;;;8.00;2.75;;;18.30;99.90;;;;;;5034516;28;20124;-70
2022/08/01 09:34:10;;;;;;;13.20;3.80;;;18.30;99.90;;;;;;5034613;28;20037;-70
2022/08/01 09:37:08;;;;;;;12.00;3.58;;;18.40;99.90;;;;;;5017599;28;20398;-70
2022/08/01 09:39:37;;;;;;;9.93;3.50;;;18.60;99.90;;;;;;4994099;28;20107;-70
2022/08/01 09:42:20;;;;;;;13.95;3.47;;;18.80;99.90;;;;;;5017469;28;20041;-70
2022/08/01 09:44:46;;;;;;;14.90;3.40;;;18.90;99.90;;;;;;5051728;28;20053;-70
2022/08/01 09:47:13;;;;;;;15.15;4.35;;;19.10;99.90;;;;;;5035680;28;20044;-70
2022/08/01 09:49:41;;;;;;;12.63;3.17;;;19.30;99.90;;;;;;5001843;28;20039;-70
2022/08/01 09:52:18;;;;;;;13.52;3.28;;;19.50;99.90;;;;;;5017495;28;20110;-70
2022/08/01 09:54:53;;;;;;;14.55;3.42;;;19.60;99.90;;;;;;5017262;28;20482;-70
2022/08/01 09:57:19;;;;;;;12.43;2.83;;;19.70;99.90;;;;;;5050877;28;20044;-70
2022/08/01 09:59:47;;;;;;;11.48;3.17;;;19.80;99.90;;;;;;5033842;28;20033;-70
2022/08/01 10:02:26;;;;;;;11.05;3.85;;;19.80;99.90;;;;;;5017600;28;20524;-70
2022/08/01 10:04:52;;;;;;;8.05;3.20;;;19.90;99.90;;;;;;5033478;28;20053;-70
2022/08/01 10:07:18;;;;;;;9.55;2.65;;;20.00;99.90;;;;;;5016749;28;20036;-70
2022/08/01 10:09:45;;;;;;;7.57;2.60;;;20.00;99.90;;;;;;5017059;28;20037;-70
2022/08/01 10:12:16;;;;;;;10.70;2.65;;;20.10;99.90;;;;;;5033823;28;20044;-70
2022/08/01 10:14:45;;;;;;;9.83;3.17;;;20.10;99.90;;;;;;5034016;28;20048;-70
2022/08/01 10:17:15;;;;;;;8.73;3.13;;;20.00;99.90;;;;;;5030504;28;20521;-70
2022/08/01 10:19:43;;;;;;;10.77;3.20;;;20.00;99.90;;;;;;5033630;28;20040;-70
2022/08/01 10:22:16;;;;;;;7.22;2.60;;;20.00;99.90;;;;;;5033649;28;20087;-70
2022/08/01 10:24:47;;;;;;;8.63;2.92;;;20.00;99.90;;;;;;5016704;28;20633;-70
2022/08/01 10:27:16;;;;;;;12.68;2.80;;;20.20;99.90;;;;;;5051454;28;20640;-70
2022/08/01 10:29:56;;;;;;;10.80;2.53;;;20.20;99.90;;;;;;5033466;28;20077;-70
2022/08/01 10:32:22;;;;;;;9.93;3.08;;;20.20;99.90;;;;;;5016833;28;20059;-70
2022/08/01 10:34:49;;;;;;;10.50;2.40;;;20.20;99.90;;;;;;5016221;28;20037;-70
2022/08/01 10:37:17;;;;;;;5.93;2.50;;;20.00;99.90;;;;;;5033226;28;20095;-70
2022/08/01 10:39:43;;;;;;;11.07;3.38;;;20.00;99.90;;;;;;5032382;28;20160;-70
2022/08/01 10:42:11;;;;;;;11.38;2.90;;;20.10;99.90;;;;;;5032957;28;20037;-70
2022/08/01 10:44:38;;;;;;;10.63;2.50;;;20.10;99.90;;;;;;5031933;28;20449;-70
2022/08/01 10:47:12;;;;;;;11.95;3.05;;;20.20;99.90;;;;;;5029935;28;20403;-70
2022/08/01 10:49:47;;;;;;;12.07;2.60;;;20.30;99.90;;;;;;5048349;28;20044;-70
2022/08/01 10:52:17;;;;;;;13.93;3.33;;;20.40;99.90;;;;;;5000468;28;20454;-70
2022/08/01 10:54:44;;;;;;;11.27;3.00;;;20.50;99.90;;;;;;5028093;28;20429;-70
2022/08/01 10:57:11;;;;;;;8.30;2.33;;;20.40;99.90;;;;;;5046581;28;20048;-70
2022/08/01 10:59:48;;;;;;;9.50;2.95;;;20.40;99.90;;;;;;5013238;28;20410;-70
2022/08/01 11:02:27;;;;;;;7.55;2.60;;;20.20;99.90;;;;;;5002000;28;20463;-70
2022/08/01 11:05:19;;;;;;;9.35;2.67;;;20.30;99.90;;;;;;5015515;28;20041;-70
2022/08/01 11:07:51;;;;;;;;;;;20.40;99.90;;;;;;5014832;28;20564;-70
2022/08/01 11:10:45;;;;;;;8.32;2.30;;;20.50;99.90;;;;;;4996379;28;20394;-70
2022/08/01 11:13:11;;;;;;;10.90;4.43;;;20.60;99.90;;;;;;5022202;28;20108;-70
2022/08/01 11:15:41;;;;;;;5.80;2.35;;;20.50;99.90;;;;;;5010610;28;20259;-71
2022/08/01 11:18:30;;;;;;;7.90;2.55;;;20.40;99.90;;;;;;5009299;28;20498;-70
2022/08/01 11:21:01;;;;;;;11.80;2.30;;;20.40;99.90;;;;;;5009111;28;20044;-71
2022/08/01 11:23:32;;;;;;;7.90;2.28;;;20.50;99.90;;;;;;5025269;28;20525;-70
2022/08/01 11:26:00;;;;;;;9.02;2.05;;;20.60;99.90;;;;;;5012448;28;20037;-70
2022/08/01 11:28:29;;;;;;;5.78;2.20;;;20.60;99.90;;;;;;5040372;28;20045;-70
2022/08/01 11:31:07;;;;;;;8.02;2.17;;;20.60;99.90;;;;;;5021086;28;20472;-71
2022/08/01 11:33:42;;;;;;;5.70;2.17;;;20.40;99.90;;;;;;5007568;28;20046;-71
2022/08/01 11:36:10;;;;;;;7.53;2.22;;;20.50;99.90;;;;;;5036186;28;20037;-71
2022/08/01 11:38:46;;;;;;;6.43;2.20;;;20.50;99.90;;;;;;4997750;28;20072;-71
2022/08/01 11:41:20;;;;;;;8.57;2.63;;;20.70;99.90;;;;;;5029644;28;20105;-71
2022/08/01 11:43:55;;;;;;;7.57;2.55;;;20.80;99.90;;;;;;5045200;28;20045;-71
2022/08/01 11:46:49;;;;;;;7.47;2.25;;;20.90;99.90;;;;;;5033292;28;20053;-71
2022/08/01 11:49:23;;;;;;;7.68;2.25;;;20.90;99.90;;;;;;5030329;28;20501;-71
2022/08/01 11:51:56;;;;;;;5.40;2.22;;;20.70;99.90;;;;;;5028965;28;20043;-71
2022/08/01 11:54:28;;;;;;;8.18;2.00;;;20.70;99.90;;;;;;5038151;28;20035;-71
2022/08/01 11:56:59;;;;;;;7.00;2.25;;;20.70;99.90;;;;;;5033415;28;20203;-71
2022/08/01 11:59:26;;;;;;;8.55;2.25;;;20.60;99.90;;;;;;5039273;28;20033;-71
2022/08/01 12:01:51;;;;;;;5.07;2.00;;;20.60;99.90;;;;;;5049108;28;20033;-71
2022/08/01 12:04:18;;;;;;;4.78;2.03;;;20.60;99.90;;;;;;5052093;28;20509;-71
2022/08/01 12:06:44;;;;;;;6.03;2.35;;;20.60;99.90;;;;;;5019549;28;20150;-71
2022/08/01 12:09:23;;;;;;;13.48;3.08;;;20.70;99.90;;;;;;5009046;28;20102;-71
2022/08/01 12:11:49;;;;;;;6.97;2.28;;;20.80;99.90;;;;;;5019878;28;20048;-71
2022/08/01 12:14:20;;;;;;;3.75;1.60;;;20.90;99.90;;;;;;5036145;28;20032;-71
2022/08/01 12:16:53;;;;;;;6.20;1.80;;;20.90;99.90;;;;;;5021624;28;20038;-71
2022/08/01 12:19:23;;;;;;;15.05;2.42;;;20.80;99.90;;;;;;5036145;28;20486;-71
2022/08/01 12:22:11;;;;;;;6.82;2.20;;;20.70;99.90;;;;;;5006071;28;20033;-71
2022/08/01 12:24:39;;;;;;;5.75;2.45;;;20.60;99.90;;;;;;5030327;28;20083;-71
2022/08/01 12:27:06;;;;;;;7.50;2.20;;;20.60;99.90;;;;;;5041363;28;20157;-71
2022/08/01 12:29:43;;;;;;;6.97;2.00;;;20.60;99.90;;;;;;5038619;28;20502;-72
2022/08/01 12:32:26;;;;;;;3.40;1.83;;;20.70;99.90;;;;;;5018600;28;20041;-71
2022/08/01 12:34:53;;;;;;;6.68;1.80;;;20.70;99.90;;;;;;5031178;28;20041;-71
2022/08/01 12:37:20;;;;;;;6.30;2.50;;;20.70;99.90;;;;;;5036324;28;20513;-71
2022/08/01 12:39:47;;;;;;;10.07;2.60;;;20.70;99.90;;;;;;5033860;28;20465;-71
2022/08/01 12:42:14;;;;;;;7.45;3.75;;;20.70;99.90;;;;;;5034895;28;20464;-71
2022/08/01 12:44:42;;;;;;;4.72;1.88;;;20.80;99.90;;;;;;5051641;28;20041;-72
2022/08/01 12:47:09;;;;;;;4.75;1.55;;;20.90;99.90;;;;;;5043379;28;20529;-71
2022/08/01 12:49:36;;;;;;;11.80;2.20;;;20.90;99.90;;;;;;5047720;28;20494;-73
2022/08/01 12:52:03;;;;;;;2.63;1.60;;;21.00;99.90;;;;;;5023876;28;20041;-73